Time,TemperatureF,DewpointF,PressureIn,WindDirection,WindDirectionDegrees,WindSpeedMPH,WindSpeedGustMPH,Humidity,HourlyPrecipIn,Conditions,Clouds,dailyrainin,SoftwareType,DateUTC
2013-04-11 00:00:00,34.3,26.2,30.12,West,259,0.0,1.0,72,0.00,,,0.00,meteohub,2013-04-11 04:00:00,
2013-04-11 00:01:00,34.3,25.9,30.12,West,259,0.0,1.0,71,0.00,,,0.00,meteohub,2013-04-11 04:01:00,
2013-04-11 00:06:00,34.3,25.9,30.12,West,276,0.0,1.0,71,0.00,,,0.00,meteohub,2013-04-11 04:06:00,
2013-04-11 00:11:00,34.3,25.5,30.12,North,350,1.0,1.0,70,0.00,,,0.00,meteohub,2013-04-11 04:11:00,
2013-04-11 00:17:00,34.2,25.7,30.11,NE,39,2.0,2.0,71,0.00,,,0.00,meteohub,2013-04-11 04:17:00,
2013-04-11 00:22:00,34.2,26.4,30.09,NNE,17,0.0,2.0,73,0.00,,,0.00,meteohub,2013-04-11 04:22:00,
2013-04-11 00:27:00,34.0,25.9,30.09,ENE,61,0.0,2.0,72,0.00,,,0.00,meteohub,2013-04-11 04:27:00,
2013-04-11 00:32:00,33.6,25.5,30.09,NNW,337,2.0,3.0,72,0.00,,,0.00,meteohub,2013-04-11 04:32:00,
2013-04-11 00:37:00,33.6,25.5,30.10,North,9,0.0,4.0,72,0.00,,,0.00,meteohub,2013-04-11 04:37:00,
2013-04-11 00:42:00,33.4,25.3,30.10,WNW,283,1.0,4.0,72,0.00,,,0.00,meteohub,2013-04-11 04:42:00,
2013-04-11 00:47:00,33.4,25.7,30.11,WSW,247,1.0,4.0,73,0.00,,,0.00,meteohub,2013-04-11 04:47:00,
2013-04-11 00:52:00,33.3,25.5,30.11,WSW,245,0.0,2.0,73,0.00,,,0.00,meteohub,2013-04-11 04:52:00,
2013-04-11 00:57:00,33.1,25.3,30.10,WSW,245,0.0,2.0,73,0.00,,,0.00,meteohub,2013-04-11 04:57:00,
2013-04-11 01:02:00,33.1,25.3,30.10,WSW,243,0.0,1.0,73,0.00,,,0.00,meteohub,2013-04-11 05:02:00,
2013-04-11 01:07:00,33.1,25.3,30.11,WNW,295,0.0,1.0,73,0.00,,,0.00,meteohub,2013-04-11 05:07:00,
2013-04-11 01:12:00,33.1,25.3,30.10,WNW,294,0.0,2.0,73,0.00,,,0.00,meteohub,2013-04-11 05:12:00,
2013-04-11 01:17:00,33.1,25.7,30.10,WNW,295,0.0,2.0,74,0.00,,,0.00,meteohub,2013-04-11 05:17:00,
2013-04-11 01:22:00,33.1,25.3,30.10,WNW,293,1.0,2.0,73,0.00,,,0.00,meteohub,2013-04-11 05:22:00,
2013-04-11 01:27:00,33.1,25.3,30.10,WNW,293,0.0,1.0,73,0.00,,,0.00,meteohub,2013-04-11 05:27:00,
2013-04-11 01:32:00,33.1,25.3,30.10,WNW,293,0.0,1.0,73,0.00,,,0.00,meteohub,2013-04-11 05:32:00,
2013-04-11 01:37:00,32.9,25.2,30.11,WNW,293,0.0,1.0,73,0.00,,,0.00,meteohub,2013-04-11 05:37:00,
2013-04-11 01:42:00,32.7,25.3,30.10,ENE,61,0.0,1.0,74,0.00,,,0.00,meteohub,2013-04-11 05:42:00,
2013-04-11 01:47:00,32.7,26.6,30.11,SE,129,0.0,1.0,78,0.00,,,0.00,meteohub,2013-04-11 05:47:00,
2013-04-11 01:52:00,32.5,26.4,30.11,SE,129,0.0,1.0,78,0.00,,,0.00,meteohub,2013-04-11 05:52:00,
2013-04-11 01:57:00,32.4,26.6,30.10,SE,129,0.0,1.0,79,0.00,,,0.00,meteohub,2013-04-11 05:57:00,
2013-04-11 02:02:00,32.4,26.2,30.09,East,82,1.0,1.0,78,0.00,,,0.00,meteohub,2013-04-11 06:02:00,
2013-04-11 02:07:00,32.5,25.9,30.08,ENE,60,2.0,2.0,76,0.00,,,0.00,meteohub,2013-04-11 06:07:00,
2013-04-11 02:12:00,32.9,25.9,30.07,SE,141,3.0,3.0,75,0.00,,,0.00,meteohub,2013-04-11 06:12:00,
2013-04-11 02:17:00,33.6,26.2,30.07,WNW,302,3.0,6.0,74,0.00,,,0.00,meteohub,2013-04-11 06:17:00,
2013-04-11 02:22:00,34.2,25.7,30.07,ESE,113,2.0,9.0,71,0.00,,,0.00,meteohub,2013-04-11 06:22:00,
2013-04-11 02:27:00,34.5,25.7,30.06,SSE,162,2.0,10.0,70,0.00,,,0.00,meteohub,2013-04-11 06:27:00,
2013-04-11 02:32:00,34.9,26.1,30.06,West,279,6.0,11.0,70,0.00,,,0.00,meteohub,2013-04-11 06:32:00,
2013-04-11 02:37:00,35.1,25.9,30.05,SW,229,1.0,11.0,69,0.00,,,0.00,meteohub,2013-04-11 06:37:00,
2013-04-11 02:42:00,35.1,25.9,30.05,ENE,78,6.0,11.0,69,0.00,,,0.00,meteohub,2013-04-11 06:42:00,
2013-04-11 02:47:00,35.2,26.1,30.05,SSW,207,2.0,10.0,69,0.00,,,0.00,meteohub,2013-04-11 06:47:00,
2013-04-11 02:52:00,35.2,25.7,30.05,WSW,247,3.0,10.0,68,0.00,,,0.00,meteohub,2013-04-11 06:52:00,
2013-04-11 02:58:00,35.2,25.7,30.05,SSW,193,1.0,10.0,68,0.00,,,0.00,meteohub,2013-04-11 06:58:00,
2013-04-11 03:03:00,35.2,25.7,30.05,SW,217,2.0,11.0,68,0.00,,,0.00,meteohub,2013-04-11 07:03:00,
2013-04-11 03:08:00,35.2,25.3,30.05,SW,220,2.0,11.0,67,0.00,,,0.00,meteohub,2013-04-11 07:08:00,
2013-04-11 03:13:00,35.4,25.5,30.05,SSE,151,4.0,9.0,67,0.00,,,0.00,meteohub,2013-04-11 07:13:00,
2013-04-11 03:18:00,35.4,25.2,30.04,ENE,71,1.0,9.0,66,0.00,,,0.00,meteohub,2013-04-11 07:18:00,
2013-04-11 03:23:00,35.4,25.2,30.04,WNW,290,2.0,8.0,66,0.00,,,0.00,meteohub,2013-04-11 07:23:00,
2013-04-11 03:28:00,35.4,25.2,30.04,West,262,2.0,8.0,66,0.00,,,0.00,meteohub,2013-04-11 07:28:00,
2013-04-11 03:33:00,35.4,24.8,30.05,NE,42,4.0,14.0,65,0.00,,,0.00,meteohub,2013-04-11 07:33:00,
2013-04-11 03:38:00,35.4,24.8,30.05,SE,134,2.0,14.0,65,0.00,,,0.00,meteohub,2013-04-11 07:38:00,
2013-04-11 03:43:00,35.2,24.6,30.06,East,83,2.0,14.0,65,0.00,,,0.00,meteohub,2013-04-11 07:43:00,
2013-04-11 03:48:00,35.2,25.0,30.06,ESE,109,5.0,8.0,66,0.00,,,0.00,meteohub,2013-04-11 07:48:00,
2013-04-11 03:53:00,35.2,25.0,30.07,West,271,1.0,8.0,66,0.00,,,0.00,meteohub,2013-04-11 07:53:00,
2013-04-11 03:58:00,35.2,25.0,30.06,ENE,58,1.0,8.0,66,0.00,,,0.00,meteohub,2013-04-11 07:58:00,
2013-04-11 04:03:00,35.2,24.6,30.06,ESE,120,4.0,8.0,65,0.00,,,0.00,meteohub,2013-04-11 08:03:00,
2013-04-11 04:08:00,35.1,25.2,30.06,SSW,196,4.0,8.0,67,0.00,,,0.00,meteohub,2013-04-11 08:08:00,
2013-04-11 04:13:00,35.1,25.2,30.07,ESE,103,7.0,8.0,67,0.00,,,0.00,meteohub,2013-04-11 08:13:00,
2013-04-11 04:18:00,34.9,24.6,30.07,ESE,102,1.0,8.0,66,0.00,,,0.00,meteohub,2013-04-11 08:18:00,
2013-04-11 04:23:00,34.9,25.0,30.07,ESE,115,0.0,8.0,67,0.00,,,0.00,meteohub,2013-04-11 08:23:00,
2013-04-11 04:28:00,34.9,25.3,30.07,East,83,2.0,8.0,68,0.00,,,0.00,meteohub,2013-04-11 08:28:00,
2013-04-11 04:33:00,34.7,24.8,30.07,SW,217,3.0,8.0,67,0.00,,,0.00,meteohub,2013-04-11 08:33:00,
2013-04-11 04:38:00,34.7,24.8,30.07,ENE,58,4.0,9.0,67,0.00,,,0.00,meteohub,2013-04-11 08:38:00,
2013-04-11 04:43:00,34.5,25.0,30.08,NE,44,3.0,9.0,68,0.00,,,0.00,meteohub,2013-04-11 08:43:00,
2013-04-11 04:48:00,34.5,25.0,30.08,SW,230,2.0,9.0,68,0.00,,,0.00,meteohub,2013-04-11 08:48:00,
2013-04-11 04:53:00,34.5,25.0,30.08,East,92,3.0,6.0,68,0.00,,,0.00,meteohub,2013-04-11 08:53:00,
2013-04-11 04:58:00,34.3,24.8,30.08,NE,41,0.0,5.0,68,0.00,,,0.00,meteohub,2013-04-11 08:58:00,
2013-04-11 05:03:00,34.3,25.2,30.09,SSE,152,0.0,5.0,69,0.00,,,0.00,meteohub,2013-04-11 09:03:00,
2013-04-11 05:08:00,34.2,24.6,30.09,NW,315,2.0,5.0,68,0.00,,,0.00,meteohub,2013-04-11 09:08:00,
2013-04-11 05:13:00,34.2,25.0,30.10,NW,323,1.0,6.0,69,0.00,,,0.00,meteohub,2013-04-11 09:13:00,
2013-04-11 05:18:00,34.2,25.0,30.10,ENE,77,4.0,6.0,69,0.00,,,0.00,meteohub,2013-04-11 09:18:00,
2013-04-11 05:23:00,34.2,25.0,30.10,ENE,68,1.0,7.0,69,0.00,,,0.00,meteohub,2013-04-11 09:23:00,
2013-04-11 05:28:00,34.0,24.6,30.10,SSE,148,1.0,7.0,68,0.00,,,0.00,meteohub,2013-04-11 09:28:00,
2013-04-11 05:33:00,34.0,24.8,30.09,ESE,117,1.0,8.0,69,0.00,,,0.00,meteohub,2013-04-11 09:33:00,
2013-04-11 05:38:00,34.0,25.2,30.09,ESE,115,2.0,8.0,70,0.00,,,0.00,meteohub,2013-04-11 09:38:00,
2013-04-11 05:43:00,33.8,25.0,30.09,SSE,157,1.0,8.0,70,0.00,,,0.00,meteohub,2013-04-11 09:43:00,
2013-04-11 05:48:00,33.6,24.8,30.09,ENE,62,1.0,7.0,70,0.00,,,0.00,meteohub,2013-04-11 09:48:00,
2013-04-11 05:53:00,33.6,25.2,30.09,NE,36,2.0,7.0,71,0.00,,,0.00,meteohub,2013-04-11 09:53:00,
2013-04-11 05:58:00,33.4,25.3,30.09,NNW,343,6.0,7.0,72,0.00,,,0.00,meteohub,2013-04-11 09:58:00,
2013-04-11 06:04:00,33.4,25.0,30.09,North,355,5.0,5.0,71,0.00,,,0.00,meteohub,2013-04-11 10:04:00,
2013-04-11 06:09:00,33.3,24.8,30.08,North,10,3.0,10.0,71,0.00,,,0.00,meteohub,2013-04-11 10:09:00,
2013-04-11 06:14:00,33.3,24.8,30.07,East,92,3.0,10.0,71,0.00,,,0.00,meteohub,2013-04-11 10:14:00,
2013-04-11 06:19:00,33.3,24.8,30.07,SSE,157,1.0,10.0,71,0.00,,,0.00,meteohub,2013-04-11 10:19:00,
2013-04-11 06:24:00,33.3,25.2,30.07,SSW,207,1.0,13.0,72,0.00,,,0.00,meteohub,2013-04-11 10:24:00,
2013-04-11 06:29:00,33.1,25.0,30.06,NE,37,2.0,13.0,72,0.00,,,0.00,meteohub,2013-04-11 10:29:00,
2013-04-11 06:34:00,33.1,25.0,30.06,SW,230,2.0,13.0,72,0.00,,,0.00,meteohub,2013-04-11 10:34:00,
2013-04-11 06:39:00,32.9,24.8,30.05,NNW,339,0.0,8.0,72,0.00,,,0.00,meteohub,2013-04-11 10:39:00,
2013-04-11 06:44:00,32.9,24.8,30.04,NNW,340,3.0,8.0,72,0.00,,,0.00,meteohub,2013-04-11 10:44:00,
2013-04-11 06:49:00,32.7,24.6,30.04,ENE,61,2.0,8.0,72,0.00,,,0.00,meteohub,2013-04-11 10:49:00,
2013-04-11 06:54:00,32.7,24.6,30.04,SSE,161,2.0,11.0,72,0.00,,,0.00,meteohub,2013-04-11 10:54:00,
2013-04-11 06:59:00,32.7,24.4,30.04,SE,138,2.0,11.0,71,0.00,,,0.00,meteohub,2013-04-11 10:59:00,
2013-04-11 07:04:00,32.5,24.4,30.04,South,176,2.0,11.0,72,0.00,,,0.00,meteohub,2013-04-11 11:04:00,
2013-04-11 07:09:00,32.5,24.3,30.04,SE,124,4.0,11.0,71,0.00,,,0.00,meteohub,2013-04-11 11:09:00,
2013-04-11 07:14:00,32.4,24.1,30.04,ENE,74,2.0,16.0,71,0.00,,,0.00,meteohub,2013-04-11 11:14:00,
2013-04-11 07:19:00,32.4,24.1,30.04,NNE,17,6.0,16.0,71,0.00,,,0.00,meteohub,2013-04-11 11:19:00,
2013-04-11 07:24:00,32.4,24.1,30.03,WSW,249,4.0,16.0,71,0.00,,,0.00,meteohub,2013-04-11 11:24:00,
2013-04-11 07:29:00,32.2,23.5,30.02,SSW,203,4.0,15.0,70,0.00,,,0.00,meteohub,2013-04-11 11:29:00,
2013-04-11 07:34:00,32.2,23.5,30.02,North,9,5.0,17.0,70,0.00,,,0.00,meteohub,2013-04-11 11:34:00,
2013-04-11 07:39:00,32.2,23.5,30.03,ENE,77,3.0,17.0,70,0.00,,,0.00,meteohub,2013-04-11 11:39:00,
2013-04-11 07:44:00,32.0,23.7,30.03,WNW,289,1.0,15.0,71,0.00,,,0.00,meteohub,2013-04-11 11:44:00,
2013-04-11 07:49:00,32.0,23.7,30.04,SSW,195,4.0,16.0,71,0.00,,,0.00,meteohub,2013-04-11 11:49:00,
2013-04-11 07:54:00,32.0,23.7,30.06,WSW,237,1.0,16.0,71,0.00,,,0.00,meteohub,2013-04-11 11:54:00,
2013-04-11 07:59:00,31.8,23.5,30.08,NNE,27,6.0,12.0,71,0.00,,,0.00,meteohub,2013-04-11 11:59:00,
2013-04-11 08:04:00,31.8,23.5,30.08,ENE,63,2.0,15.0,71,0.00,,,0.00,meteohub,2013-04-11 12:04:00,
2013-04-11 08:09:00,31.8,23.5,30.11,SW,221,2.0,15.0,71,0.00,,,0.00,meteohub,2013-04-11 12:09:00,
2013-04-11 08:14:00,31.8,23.9,30.10,SSW,199,3.0,15.0,72,0.00,,,0.00,meteohub,2013-04-11 12:14:00,
2013-04-11 08:19:00,32.0,24.1,30.13,ESE,107,1.0,10.0,72,0.00,,,0.00,meteohub,2013-04-11 12:19:00,
2013-04-11 08:24:00,32.2,23.9,30.12,SE,131,3.0,10.0,71,0.00,,,0.00,meteohub,2013-04-11 12:24:00,
2013-04-11 08:29:00,32.2,23.9,30.11,SSE,150,1.0,6.0,71,0.00,,,0.00,meteohub,2013-04-11 12:29:00,
2013-04-11 08:34:00,32.2,23.9,30.11,ENE,61,5.0,7.0,71,0.00,,,0.00,meteohub,2013-04-11 12:34:00,
2013-04-11 08:39:00,32.2,24.3,30.10,North,350,3.0,7.0,72,0.00,,,0.00,meteohub,2013-04-11 12:39:00,
2013-04-11 08:44:00,32.0,23.4,30.11,North,2,10.0,10.0,70,0.00,,,0.00,meteohub,2013-04-11 12:44:00,
2013-04-11 08:49:00,31.8,23.2,30.12,NE,34,4.0,13.0,70,0.00,,,0.00,meteohub,2013-04-11 12:49:00,
2013-04-11 08:54:00,31.8,23.2,30.12,SE,127,2.0,14.0,70,0.00,,,0.00,meteohub,2013-04-11 12:54:00,
2013-04-11 08:59:00,31.8,23.2,30.11,East,89,3.0,14.0,70,0.00,,,0.00,meteohub,2013-04-11 12:59:00,
2013-04-11 09:04:00,31.8,23.2,30.09,SSE,165,2.0,13.0,70,0.00,,,0.00,meteohub,2013-04-11 13:04:00,
2013-04-11 09:09:00,31.8,23.2,30.08,WNW,282,0.0,14.0,70,0.00,,,0.00,meteohub,2013-04-11 13:09:00,
2013-04-11 09:14:00,32.0,23.4,30.10,ENE,74,5.0,14.0,70,0.00,,,0.00,meteohub,2013-04-11 13:14:00,
2013-04-11 09:19:00,32.2,23.5,30.10,East,98,4.0,14.0,70,0.00,,,0.00,meteohub,2013-04-11 13:19:00,
2013-04-11 09:24:00,32.2,23.5,30.10,SSE,162,2.0,11.0,70,0.00,,,0.00,meteohub,2013-04-11 13:24:00,
2013-04-11 09:29:00,32.2,23.5,30.10,West,270,3.0,12.0,70,0.00,,,0.00,meteohub,2013-04-11 13:29:00,
2013-04-11 09:34:00,32.2,23.5,30.09,SSW,196,3.0,12.0,70,0.00,,,0.00,meteohub,2013-04-11 13:34:00,
2013-04-11 09:39:00,32.0,23.0,30.09,SSW,196,4.0,12.0,69,0.00,,,0.00,meteohub,2013-04-11 13:39:00,
2013-04-11 09:44:00,32.0,23.4,30.06,SSE,157,1.0,16.0,70,0.00,,,0.00,meteohub,2013-04-11 13:44:00,
2013-04-11 09:49:00,32.0,23.4,30.06,South,183,3.0,16.0,70,0.00,,,0.00,meteohub,2013-04-11 13:49:00,
2013-04-11 09:54:00,31.8,23.2,30.06,ESE,109,2.0,17.0,70,0.00,,,0.00,meteohub,2013-04-11 13:54:00,
2013-04-11 09:59:00,31.8,22.8,30.07,SSE,158,10.0,17.0,69,0.00,,,0.00,meteohub,2013-04-11 13:59:00,
2013-04-11 10:04:00,31.8,23.2,30.07,North,355,5.0,17.0,70,0.00,,,0.00,meteohub,2013-04-11 14:04:00,
2013-04-11 10:10:00,31.6,22.6,30.06,ESE,106,8.0,15.0,69,0.00,,,0.00,meteohub,2013-04-11 14:10:00,
2013-04-11 10:15:00,31.6,22.6,30.05,East,99,4.0,16.0,69,0.00,,,0.00,meteohub,2013-04-11 14:15:00,
2013-04-11 10:20:00,31.6,22.6,30.04,West,262,2.0,16.0,69,0.00,,,0.00,meteohub,2013-04-11 14:20:00,
2013-04-11 10:25:00,31.6,22.6,30.03,North,6,3.0,16.0,69,0.00,,,0.00,meteohub,2013-04-11 14:25:00,
2013-04-11 10:30:00,31.6,22.6,30.04,ENE,66,5.0,15.0,69,0.00,,,0.00,meteohub,2013-04-11 14:30:00,
2013-04-11 10:35:00,31.6,23.0,30.04,SW,217,2.0,15.0,70,0.00,,,0.00,meteohub,2013-04-11 14:35:00,
2013-04-11 10:40:00,31.8,22.8,30.04,SSW,202,7.0,15.0,69,0.00,,,0.00,meteohub,2013-04-11 14:40:00,
2013-04-11 10:45:00,31.8,23.2,30.04,ENE,61,3.0,12.0,70,0.00,,,0.00,meteohub,2013-04-11 14:45:00,
2013-04-11 10:50:00,32.2,23.2,30.05,ENE,65,7.0,12.0,69,0.00,,,0.00,meteohub,2013-04-11 14:50:00,
2013-04-11 10:55:00,32.2,23.2,30.05,East,100,14.0,14.0,69,0.00,,,0.00,meteohub,2013-04-11 14:55:00,
2013-04-11 11:00:00,32.2,22.8,30.06,East,83,7.0,16.0,68,0.00,,,0.00,meteohub,2013-04-11 15:00:00,
2013-04-11 11:05:00,32.4,23.0,30.06,NE,55,9.0,16.0,68,0.00,,,0.00,meteohub,2013-04-11 15:05:00,
2013-04-11 11:10:00,32.5,23.2,30.04,SE,143,4.0,16.0,68,0.00,,,0.00,meteohub,2013-04-11 15:10:00,
2013-04-11 11:15:00,32.9,23.2,30.05,South,183,4.0,13.0,67,0.00,,,0.00,meteohub,2013-04-11 15:15:00,
2013-04-11 11:20:00,33.1,23.7,30.05,ESE,108,4.0,11.0,68,0.00,,,0.00,meteohub,2013-04-11 15:20:00,
2013-04-11 11:25:00,33.3,23.9,30.05,NNE,27,12.0,12.0,68,0.00,,,0.00,meteohub,2013-04-11 15:25:00,
2013-04-11 11:30:00,33.4,23.4,30.05,ENE,65,2.0,12.0,66,0.00,,,0.00,meteohub,2013-04-11 15:30:00,
2013-04-11 11:35:00,33.4,23.7,30.05,NE,54,1.0,13.0,67,0.00,,,0.00,meteohub,2013-04-11 15:35:00,
2013-04-11 11:40:00,33.4,23.7,30.05,SW,218,4.0,13.0,67,0.00,,,0.00,meteohub,2013-04-11 15:40:00,
2013-04-11 11:45:00,33.6,23.5,30.04,ESE,110,2.0,13.0,66,0.00,,,0.00,meteohub,2013-04-11 15:45:00,
2013-04-11 11:50:00,33.6,23.9,30.04,NNE,32,5.0,8.0,67,0.00,,,0.00,meteohub,2013-04-11 15:50:00,
2013-04-11 11:55:00,33.6,23.2,30.03,ESE,114,4.0,9.0,65,0.00,,,0.00,meteohub,2013-04-11 15:55:00,
2013-04-11 12:00:00,33.4,23.4,30.03,NNW,347,6.0,15.0,66,0.00,,,0.00,meteohub,2013-04-11 16:00:00,
2013-04-11 12:05:00,33.6,23.2,30.02,NNE,27,9.0,15.0,65,0.00,,,0.00,meteohub,2013-04-11 16:05:00,
2013-04-11 12:10:00,33.8,23.4,30.03,East,100,3.0,17.0,65,0.00,,,0.00,meteohub,2013-04-11 16:10:00,
2013-04-11 12:15:00,34.0,23.0,30.03,ENE,67,9.0,17.0,64,0.00,,,0.00,meteohub,2013-04-11 16:15:00,
2013-04-11 12:20:00,34.2,23.5,30.03,SSW,206,17.0,17.0,65,0.00,,,0.00,meteohub,2013-04-11 16:20:00,
2013-04-11 12:25:00,34.0,23.0,30.03,East,95,4.0,23.0,64,0.00,,,0.00,meteohub,2013-04-11 16:25:00,
2013-04-11 12:30:00,34.2,23.2,30.02,WNW,300,5.0,23.0,64,0.00,,,0.00,meteohub,2013-04-11 16:30:00,
2013-04-11 12:35:00,34.2,22.8,30.02,SW,228,7.0,23.0,63,0.00,,,0.00,meteohub,2013-04-11 16:35:00,
2013-04-11 12:40:00,34.2,23.2,30.02,SE,141,2.0,17.0,64,0.00,,,0.00,meteohub,2013-04-11 16:40:00,
2013-04-11 12:45:00,34.3,23.0,30.02,ESE,113,1.0,17.0,63,0.00,,,0.00,meteohub,2013-04-11 16:45:00,
2013-04-11 12:50:00,34.3,22.3,30.02,NE,52,4.0,12.0,61,0.00,,,0.00,meteohub,2013-04-11 16:50:00,
2013-04-11 12:55:00,34.3,22.6,30.02,NNE,32,11.0,12.0,62,0.00,,,0.00,meteohub,2013-04-11 16:55:00,
2013-04-11 13:00:00,34.0,22.3,30.01,SE,129,7.0,16.0,62,0.00,,,0.00,meteohub,2013-04-11 17:00:00,
2013-04-11 13:05:00,34.0,22.6,30.00,East,93,7.0,16.0,63,0.00,,,0.00,meteohub,2013-04-11 17:05:00,
2013-04-11 13:10:00,34.2,22.1,30.01,West,261,3.0,16.0,61,0.00,,,0.00,meteohub,2013-04-11 17:10:00,
2013-04-11 13:15:00,34.3,22.3,30.01,NE,54,1.0,16.0,61,0.00,,,0.00,meteohub,2013-04-11 17:15:00,
2013-04-11 13:20:00,34.5,21.7,30.01,SSW,195,4.0,14.0,59,0.00,,,0.00,meteohub,2013-04-11 17:20:00,
2013-04-11 13:25:00,34.3,21.6,30.00,SW,224,3.0,14.0,59,0.00,,,0.00,meteohub,2013-04-11 17:25:00,
2013-04-11 13:30:00,34.3,21.6,30.00,SE,126,7.0,14.0,59,0.00,,,0.00,meteohub,2013-04-11 17:30:00,
2013-04-11 13:35:00,34.3,21.6,30.00,SSW,210,5.0,12.0,59,0.00,,,0.00,meteohub,2013-04-11 17:35:00,
2013-04-11 13:40:00,34.2,21.4,30.00,East,89,5.0,18.0,59,0.00,,,0.00,meteohub,2013-04-11 17:40:00,
2013-04-11 13:46:00,34.0,21.6,29.99,East,92,12.0,18.0,60,0.00,,,0.00,meteohub,2013-04-11 17:46:00,
2013-04-11 13:51:00,34.0,21.9,30.00,ENE,66,7.0,18.0,61,0.00,,,0.00,meteohub,2013-04-11 17:51:00,
2013-04-11 13:56:00,34.2,22.5,30.00,East,81,6.0,17.0,62,0.00,,,0.00,meteohub,2013-04-11 17:56:00,
2013-04-11 14:01:00,34.3,22.6,30.00,SE,138,8.0,16.0,62,0.00,,,0.00,meteohub,2013-04-11 18:01:00,
2013-04-11 14:06:00,34.2,22.8,30.00,ESE,110,8.0,14.0,63,0.00,,,0.00,meteohub,2013-04-11 18:06:00,
2013-04-11 14:11:00,34.2,22.8,30.00,South,176,5.0,14.0,63,0.00,,,0.00,meteohub,2013-04-11 18:11:00,
2013-04-11 14:16:00,34.2,22.8,29.99,NNW,343,3.0,14.0,63,0.00,,,0.00,meteohub,2013-04-11 18:16:00,
2013-04-11 14:21:00,34.2,22.5,29.99,ESE,117,4.0,13.0,62,0.00,,,0.00,meteohub,2013-04-11 18:21:00,
2013-04-11 14:26:00,34.0,22.3,29.98,SE,130,5.0,13.0,62,0.00,,,0.00,meteohub,2013-04-11 18:26:00,
2013-04-11 14:31:00,34.0,22.6,29.99,SE,140,6.0,12.0,63,0.00,,,0.00,meteohub,2013-04-11 18:31:00,
2013-04-11 14:36:00,34.0,22.6,29.97,SSE,165,1.0,12.0,63,0.00,,,0.00,meteohub,2013-04-11 18:36:00,
2013-04-11 14:42:00,34.0,22.3,29.97,NW,312,5.0,11.0,62,0.00,,,0.00,meteohub,2013-04-11 18:42:00,
2013-04-11 14:47:00,34.0,22.3,29.98,SSW,209,4.0,9.0,62,0.00,,,0.00,meteohub,2013-04-11 18:47:00,
2013-04-11 14:52:00,34.0,22.6,29.97,East,86,5.0,12.0,63,0.00,,,0.00,meteohub,2013-04-11 18:52:00,
2013-04-11 14:57:00,33.8,23.0,29.97,South,183,2.0,14.0,64,0.00,,,0.00,meteohub,2013-04-11 18:57:00,
2013-04-11 15:02:00,33.6,22.8,29.98,NE,43,5.0,14.0,64,0.00,,,0.00,meteohub,2013-04-11 19:02:00,
2013-04-11 15:07:00,33.4,23.0,29.98,South,182,7.0,19.0,65,0.00,,,0.00,meteohub,2013-04-11 19:07:00,
2013-04-11 15:12:00,33.3,22.8,29.97,ESE,113,5.0,19.0,65,0.00,,,0.00,meteohub,2013-04-11 19:12:00,
2013-04-11 15:17:00,33.1,21.9,29.97,SSE,152,9.0,19.0,63,0.00,,,0.00,meteohub,2013-04-11 19:17:00,
2013-04-11 15:22:00,32.7,20.8,29.97,SSE,158,7.0,18.0,61,0.00,,,0.00,meteohub,2013-04-11 19:22:00,
2013-04-11 15:27:00,32.7,21.2,29.96,SE,133,2.0,19.0,62,0.00,,,0.00,meteohub,2013-04-11 19:27:00,
2013-04-11 15:32:00,32.9,21.7,29.97,ENE,65,10.0,19.0,63,0.00,,,0.00,meteohub,2013-04-11 19:32:00,
2013-04-11 15:38:00,32.7,21.2,29.97,SE,136,9.0,18.0,62,0.00,,,0.00,meteohub,2013-04-11 19:38:00,
2013-04-11 15:43:00,32.5,21.7,29.98,South,169,6.0,17.0,64,0.00,,,0.00,meteohub,2013-04-11 19:43:00,
2013-04-11 15:48:00,32.5,22.5,29.97,WNW,292,3.0,17.0,66,0.00,,,0.00,meteohub,2013-04-11 19:48:00,
2013-04-11 15:53:00,32.4,21.6,29.96,NW,311,7.0,13.0,64,0.00,,,0.00,meteohub,2013-04-11 19:53:00,
2013-04-11 15:58:00,32.2,22.1,29.97,NNE,12,3.0,13.0,66,0.00,,,0.00,meteohub,2013-04-11 19:58:00,
2013-04-11 16:03:00,31.8,22.1,29.96,NNE,24,13.0,16.0,67,0.00,,,0.00,meteohub,2013-04-11 20:03:00,
2013-04-11 16:08:00,31.8,22.5,29.97,SSE,154,6.0,16.0,68,0.00,,,0.00,meteohub,2013-04-11 20:08:00,
2013-04-11 16:13:00,31.8,22.5,29.96,NE,36,4.0,15.0,68,0.00,,,0.00,meteohub,2013-04-11 20:13:00,
2013-04-11 16:18:00,31.8,22.1,29.96,SE,136,11.0,14.0,67,0.00,,,0.00,meteohub,2013-04-11 20:18:00,
2013-04-11 16:23:00,31.6,21.9,29.97,ENE,78,9.0,19.0,67,0.00,,,0.00,meteohub,2013-04-11 20:23:00,
2013-04-11 16:28:00,31.6,22.6,29.96,NE,48,7.0,19.0,69,0.00,,,0.00,meteohub,2013-04-11 20:28:00,
2013-04-11 16:33:00,31.6,23.4,29.94,SW,223,2.0,19.0,71,0.00,,,0.00,meteohub,2013-04-11 20:33:00,
2013-04-11 16:38:00,31.6,23.4,29.94,WNW,295,1.0,18.0,71,0.00,,,0.00,meteohub,2013-04-11 20:38:00,
2013-04-11 16:43:00,31.6,22.6,29.96,NE,46,2.0,14.0,69,0.00,,,0.00,meteohub,2013-04-11 20:43:00,
2013-04-11 16:48:00,31.8,22.5,29.96,East,81,12.0,13.0,68,0.00,,,0.00,meteohub,2013-04-11 20:48:00,
2013-04-11 16:53:00,31.8,22.1,29.97,SE,138,6.0,15.0,67,0.00,,,0.00,meteohub,2013-04-11 20:53:00,
2013-04-11 16:58:00,31.6,21.2,29.97,SSW,197,5.0,15.0,65,0.00,,,0.00,meteohub,2013-04-11 20:58:00,
2013-04-11 17:03:00,31.6,21.6,29.97,West,265,3.0,16.0,66,0.00,,,0.00,meteohub,2013-04-11 21:03:00,
2013-04-11 17:08:00,31.5,21.7,29.96,SSW,209,4.0,16.0,67,0.00,,,0.00,meteohub,2013-04-11 21:08:00,
2013-04-11 17:13:00,31.5,21.7,29.97,SW,218,7.0,19.0,67,0.00,,,0.00,meteohub,2013-04-11 21:13:00,
2013-04-11 17:18:00,31.5,21.7,29.98,East,85,11.0,19.0,67,0.00,,,0.00,meteohub,2013-04-11 21:18:00,
2013-04-11 17:23:00,31.5,22.1,29.97,East,89,3.0,17.0,68,0.00,,,0.00,meteohub,2013-04-11 21:23:00,
2013-04-11 17:28:00,31.5,23.2,29.97,ENE,72,6.0,17.0,71,0.00,,,0.00,meteohub,2013-04-11 21:28:00,
2013-04-11 17:33:00,31.1,24.1,29.97,East,86,9.0,13.0,75,0.00,,,0.00,meteohub,2013-04-11 21:33:00,
2013-04-11 17:38:00,30.9,24.6,29.96,East,96,10.0,11.0,77,0.00,,,0.00,meteohub,2013-04-11 21:38:00,
2013-04-11 17:43:00,30.7,24.6,29.96,ENE,67,6.0,10.0,78,0.00,,,0.00,meteohub,2013-04-11 21:43:00,
2013-04-11 17:49:00,30.6,24.8,29.95,SE,138,5.0,17.0,79,0.00,,,0.00,meteohub,2013-04-11 21:49:00,
2013-04-11 17:54:00,30.6,25.3,29.95,North,358,2.0,17.0,81,0.00,,,0.00,meteohub,2013-04-11 21:54:00,
2013-04-11 17:59:00,30.4,25.5,29.95,SE,143,3.0,17.0,82,0.00,,,0.00,meteohub,2013-04-11 21:59:00,
2013-04-11 18:04:00,30.4,25.9,29.95,SE,143,2.0,15.0,83,0.00,,,0.00,meteohub,2013-04-11 22:04:00,
2013-04-11 18:09:00,30.4,26.1,29.95,SE,143,1.0,15.0,84,0.00,,,0.00,meteohub,2013-04-11 22:09:00,
2013-04-11 18:14:00,30.4,26.1,29.94,SE,143,3.0,9.0,84,0.00,,,0.00,meteohub,2013-04-11 22:14:00,
2013-04-11 18:19:00,30.4,26.1,29.94,SE,143,3.0,10.0,84,0.00,,,0.00,meteohub,2013-04-11 22:19:00,
2013-04-11 18:24:00,30.4,25.9,29.94,SE,143,3.0,10.0,83,0.00,,,0.00,meteohub,2013-04-11 22:24:00,
2013-04-11 18:29:00,30.2,25.7,29.94,SE,143,7.0,11.0,83,0.00,,,0.00,meteohub,2013-04-11 22:29:00,
2013-04-11 18:34:00,30.0,25.0,29.94,SE,143,7.0,11.0,81,0.00,,,0.00,meteohub,2013-04-11 22:34:00,
2013-04-11 18:39:00,30.0,25.2,29.94,SE,143,3.0,13.0,82,0.00,,,0.00,meteohub,2013-04-11 22:39:00,
2013-04-11 18:44:00,29.8,25.3,29.94,SE,143,6.0,13.0,83,0.00,,,0.00,meteohub,2013-04-11 22:44:00,
2013-04-11 18:49:00,29.8,25.5,29.94,SE,142,2.0,13.0,84,0.00,,,0.00,meteohub,2013-04-11 22:49:00,
2013-04-11 18:54:00,29.8,25.5,29.94,SE,143,5.0,11.0,84,0.00,,,0.00,meteohub,2013-04-11 22:54:00,
2013-04-11 18:59:00,29.8,25.5,29.94,SE,143,5.0,11.0,84,0.00,,,0.00,meteohub,2013-04-11 22:59:00,
2013-04-11 19:04:00,29.8,25.9,29.93,SE,143,2.0,13.0,85,0.00,,,0.00,meteohub,2013-04-11 23:04:00,
2013-04-11 19:09:00,29.7,25.7,29.94,SE,143,2.0,13.0,85,0.00,,,0.00,meteohub,2013-04-11 23:09:00,
2013-04-11 19:14:00,29.8,25.9,29.94,SE,142,2.0,13.0,85,0.00,,,0.00,meteohub,2013-04-11 23:14:00,
2013-04-11 19:19:00,29.7,26.1,29.94,SE,143,3.0,8.0,86,0.00,,,0.00,meteohub,2013-04-11 23:19:00,
2013-04-11 19:24:00,29.8,25.9,29.93,SE,143,7.0,9.0,85,0.00,,,0.00,meteohub,2013-04-11 23:24:00,
2013-04-11 19:29:00,29.8,26.2,29.92,SE,143,1.0,9.0,86,0.00,,,0.00,meteohub,2013-04-11 23:29:00,
2013-04-11 19:34:00,29.7,26.1,29.93,SE,143,3.0,11.0,86,0.00,,,0.00,meteohub,2013-04-11 23:34:00,
2013-04-11 19:39:00,29.7,26.1,29.92,SE,142,4.0,11.0,86,0.00,,,0.00,meteohub,2013-04-11 23:39:00,
2013-04-11 19:44:00,29.7,26.1,29.92,SE,143,2.0,11.0,86,0.00,,,0.00,meteohub,2013-04-11 23:44:00,
2013-04-11 19:49:00,29.7,26.2,29.92,SE,142,4.0,11.0,87,0.00,,,0.00,meteohub,2013-04-11 23:49:00,
2013-04-11 19:54:00,29.5,26.4,29.91,SE,143,1.0,9.0,88,0.00,,,0.00,meteohub,2013-04-11 23:54:00,
2013-04-11 19:59:00,29.5,26.1,29.91,SE,143,3.0,9.0,87,0.00,,,0.00,meteohub,2013-04-11 23:59:00,
2013-04-11 20:05:00,29.5,26.1,29.90,SE,143,7.0,13.0,87,0.00,,,0.00,meteohub,2013-04-12 00:05:00,
2013-04-11 20:10:00,29.5,26.4,29.90,SE,143,3.0,13.0,88,0.00,,,0.00,meteohub,2013-04-12 00:10:00,
2013-04-11 20:15:00,29.5,26.4,29.91,SE,143,6.0,13.0,88,0.00,,,0.00,meteohub,2013-04-12 00:15:00,
2013-04-11 20:20:00,29.5,26.4,29.90,SE,142,3.0,9.0,88,0.00,,,0.00,meteohub,2013-04-12 00:20:00,
2013-04-11 20:25:00,29.5,26.4,29.90,SE,143,6.0,7.0,88,0.00,,,0.00,meteohub,2013-04-12 00:25:00,
2013-04-11 20:30:00,29.5,26.4,29.89,SE,143,2.0,9.0,88,0.00,,,0.00,meteohub,2013-04-12 00:30:00,
2013-04-11 20:35:00,29.5,26.4,29.89,SE,143,3.0,9.0,88,0.00,,,0.00,meteohub,2013-04-12 00:35:00,
2013-04-11 20:40:00,29.5,26.6,29.89,SE,142,1.0,9.0,89,0.00,,,0.00,meteohub,2013-04-12 00:40:00,
2013-04-11 20:45:00,29.5,26.4,29.89,SE,143,1.0,9.0,88,0.00,,,0.00,meteohub,2013-04-12 00:45:00,
2013-04-11 20:50:00,29.5,26.6,29.88,SE,143,3.0,10.0,89,0.00,,,0.00,meteohub,2013-04-12 00:50:00,
2013-04-11 20:55:00,29.7,26.8,29.88,SE,143,3.0,10.0,89,0.00,,,0.00,meteohub,2013-04-12 00:55:00,
2013-04-11 21:00:00,29.7,26.8,29.87,SE,143,2.0,10.0,89,0.00,,,0.00,meteohub,2013-04-12 01:00:00,
2013-04-11 21:05:00,29.7,26.6,29.87,SE,142,5.0,7.0,88,0.00,,,0.00,meteohub,2013-04-12 01:05:00,
2013-04-11 21:10:00,29.7,26.8,29.87,SE,143,3.0,8.0,89,0.00,,,0.00,meteohub,2013-04-12 01:10:00,
2013-04-11 21:15:00,29.7,26.6,29.88,SE,143,5.0,8.0,88,0.00,,,0.00,meteohub,2013-04-12 01:15:00,
2013-04-11 21:20:00,29.8,26.8,29.87,SE,142,1.0,9.0,88,0.00,,,0.00,meteohub,2013-04-12 01:20:00,
2013-04-11 21:25:00,29.8,26.8,29.88,SE,143,2.0,12.0,88,0.00,,,0.00,meteohub,2013-04-12 01:25:00,
2013-04-11 21:30:00,29.8,26.8,29.88,SE,143,3.0,8.0,88,0.00,,,0.00,meteohub,2013-04-12 01:30:00,
2013-04-11 21:35:00,29.8,26.8,29.87,SE,143,2.0,11.0,88,0.00,,,0.00,meteohub,2013-04-12 01:35:00,
2013-04-11 21:40:00,29.7,26.6,29.87,SE,142,3.0,11.0,88,0.00,,,0.00,meteohub,2013-04-12 01:40:00,
2013-04-11 21:45:00,29.8,27.0,29.86,SE,143,1.0,11.0,89,0.00,,,0.00,meteohub,2013-04-12 01:45:00,
2013-04-11 21:50:00,29.7,26.6,29.86,SE,143,6.0,8.0,88,0.00,,,0.00,meteohub,2013-04-12 01:50:00,
2013-04-11 21:55:00,29.8,26.8,29.86,SE,143,3.0,6.0,88,0.00,,,0.00,meteohub,2013-04-12 01:55:00,
2013-04-11 22:00:00,29.8,27.0,29.86,SE,143,7.0,7.0,89,0.00,,,0.00,meteohub,2013-04-12 02:00:00,
2013-04-11 22:05:00,29.8,26.8,29.86,SE,143,1.0,10.0,88,0.00,,,0.00,meteohub,2013-04-12 02:05:00,
2013-04-11 22:10:00,29.8,26.8,29.86,SE,143,5.0,10.0,88,0.00,,,0.00,meteohub,2013-04-12 02:10:00,
2013-04-11 22:15:00,30.0,26.6,29.86,SE,143,9.0,10.0,87,0.00,,,0.00,meteohub,2013-04-12 02:15:00,
2013-04-11 22:20:00,30.0,26.6,29.86,SE,143,3.0,11.0,87,0.00,,,0.00,meteohub,2013-04-12 02:20:00,
2013-04-11 22:25:00,30.0,26.6,29.86,SE,143,6.0,11.0,87,0.00,,,0.00,meteohub,2013-04-12 02:25:00,
2013-04-11 22:30:00,30.0,27.0,29.86,SE,143,2.0,11.0,88,0.00,,,0.00,meteohub,2013-04-12 02:30:00,
2013-04-11 22:35:00,30.0,26.6,29.86,SE,143,5.0,10.0,87,0.00,,,0.00,meteohub,2013-04-12 02:35:00,
2013-04-11 22:40:00,30.2,26.8,29.86,SE,143,1.0,10.0,87,0.00,,,0.00,meteohub,2013-04-12 02:40:00,
2013-04-11 22:45:00,30.2,26.6,29.86,SE,143,2.0,10.0,86,0.00,,,0.00,meteohub,2013-04-12 02:45:00,
2013-04-11 22:50:00,30.2,26.8,29.86,SE,142,3.0,9.0,87,0.00,,,0.00,meteohub,2013-04-12 02:50:00,
2013-04-11 22:55:00,30.0,26.6,29.85,SE,143,7.0,11.0,87,0.00,,,0.00,meteohub,2013-04-12 02:55:00,
2013-04-11 23:00:00,30.0,26.6,29.85,SE,143,2.0,11.0,87,0.00,,,0.00,meteohub,2013-04-12 03:00:00,
2013-04-11 23:05:00,30.0,26.6,29.85,SE,143,1.0,11.0,87,0.00,,,0.00,meteohub,2013-04-12 03:05:00,
2013-04-11 23:10:00,30.0,26.6,29.85,SE,143,1.0,15.0,87,0.00,,,0.00,meteohub,2013-04-12 03:10:00,
2013-04-11 23:15:00,30.0,27.0,29.86,SE,143,3.0,15.0,88,0.00,,,0.00,meteohub,2013-04-12 03:15:00,
2013-04-11 23:20:00,30.0,27.0,29.86,SE,143,2.0,15.0,88,0.00,,,0.00,meteohub,2013-04-12 03:20:00,
2013-04-11 23:25:00,29.8,27.0,29.85,SE,143,1.0,11.0,89,0.00,,,0.00,meteohub,2013-04-12 03:25:00,
2013-04-11 23:30:00,29.8,27.0,29.84,SE,143,3.0,7.0,89,0.00,,,0.00,meteohub,2013-04-12 03:30:00,
2013-04-11 23:35:00,29.7,26.8,29.84,SE,143,0.0,7.0,89,0.00,,,0.00,meteohub,2013-04-12 03:35:00,
2013-04-11 23:40:00,29.8,27.0,29.83,SE,143,2.0,7.0,89,0.00,,,0.00,meteohub,2013-04-12 03:40:00,
2013-04-11 23:46:00,29.7,26.8,29.83,SE,143,2.0,7.0,89,0.00,,,0.00,meteohub,2013-04-12 03:46:00,
2013-04-11 23:51:00,29.7,26.8,29.83,SE,143,2.0,7.0,89,0.00,,,0.00,meteohub,2013-04-12 03:51:00,
2013-04-11 23:56:00,29.7,27.1,29.82,SE,143,1.0,7.0,90,0.00,,,0.00,meteohub,2013-04-12 03:56:00,